Hovedside
METAR-TAF:

METAR-TAF

Lufthavner :

Carlisle, England

breddegrad: 54-56-15N, lengdegrad: 002-48-33W, høyde over havet: 57 m

Gjeldene værobservasjon

Denne rapporten ble laget for 27 minutter siden, klokken 13:50 UTC
Vind 10 kt fra Vest-sørvest
Temperatur 7°C
Luftfuktighet 100%
Trykk 1028 hPa
Sikt: 8000 m
Få skyer i en høyde av 400 ft
Overskyet i en høyde av 800 ft

METAR: EGNC 231350Z 25010KT 8000 FEW004 OVC008 07/07 Q1028

Tid: 14:17 (14:17 UTC)

Varsel

Denne rapporten ble laget for 3 timer og 9 minutter siden, klokken 11:08 UTC
Varsel gyldig fra 23. klokken 12 UTC til 23. klokken 18 UTC
Vind 9 kt fra Vest-sørvest
Sikt 10 km eller mer
Brutte skyer i en høyde av 800 ft
Midlertidig
fra 23. klokken 12 UTC til 23. klokken 15 UTC
Sikt: 1400 m
Brutte skyer i en høyde av 200 ft
dis
Sannsynlighet 30% :
Midlertidig
fra 23. klokken 12 UTC til 23. klokken 15 UTC
Sikt: 0500 m
tåke

TAF: EGNC 231108Z 2312/2318 25009KT 9999 BKN008 TEMPO 2312/2315 1400 BR BKN002 PROB30 TEMPO 2312/2315 0500 FG

Værobservasjoner og værvarsel for over 4000 flyplasser (METAR- og TAF-rapporter).

Tilgjengelige stasjoner er representert av de røde og gule prikkene på kartet.

Hold musepekeren over prikken for å se navnet på stasjonen.

Klikk så for å se værobservasjoner og -varsler.

For å forandre kartet kan du klikke på den grønne knappen med svart kryss for å zoome inn, på den grønne knappen med strek for å zoome ut, eller på de grønne pilene for å se tilstøtende kart.


METAR-TAF: